Reed, United Kingdom
Current Conditions -  °F | °C
As of 6:50 AM on Wednesday 28 Jan 2015 (Local Time) from EGSS Reporting Station
Overcast Overcast  
Wind Chill: 37°   Ceiling: 900
Heat Index: 45°   Visibility: 6mi
Dew Point: 43°   Wind: 16mph
Humidity: 93%   Direction: 230°SW
Pressure: 29.74"   Gusts: NA
Location:  52.01°N, 0.02°W
Report Text: EGSS 280650Z 23014KT 9999 OVC009 07/06 Q1007
Loading
Personal Weather Stations






























Interactive Weather Map New forecast layout! Learn more

10-Day Weather Forecast

Advertisements
Track Severe Weather on mobile